sensor_id;sensor_type;location;lat;lon;timestamp;P1;durP1;ratioP1;P2;durP2;ratioP2
611;SDS011;293;53.888;11.464;2023-11-19T00:00:13;12.38;;;9.40;;
611;SDS011;293;53.888;11.464;2023-11-19T00:02:42;14.70;;;11.70;;
611;SDS011;293;53.888;11.464;2023-11-19T00:05:09;12.73;;;10.30;;
611;SDS011;293;53.888;11.464;2023-11-19T00:07:37;14.82;;;10.75;;
611;SDS011;293;53.888;11.464;2023-11-19T00:10:06;12.07;;;10.35;;
611;SDS011;293;53.888;11.464;2023-11-19T00:12:36;11.40;;;9.80;;
611;SDS011;293;53.888;11.464;2023-11-19T00:15:05;9.80;;;8.02;;
611;SDS011;293;53.888;11.464;2023-11-19T00:17:36;12.55;;;10.32;;
611;SDS011;293;53.888;11.464;2023-11-19T00:20:06;9.85;;;8.73;;
611;SDS011;293;53.888;11.464;2023-11-19T00:22:33;10.77;;;9.43;;
611;SDS011;293;53.888;11.464;2023-11-19T00:25:00;13.95;;;8.80;;
611;SDS011;293;53.888;11.464;2023-11-19T00:27:28;13.82;;;9.40;;
611;SDS011;293;53.888;11.464;2023-11-19T00:29:55;10.73;;;8.65;;
611;SDS011;293;53.888;11.464;2023-11-19T00:32:23;9.65;;;8.18;;
611;SDS011;293;53.888;11.464;2023-11-19T00:34:50;11.40;;;9.20;;
611;SDS011;293;53.888;11.464;2023-11-19T00:37:18;10.73;;;8.53;;
611;SDS011;293;53.888;11.464;2023-11-19T00:39:45;12.30;;;10.30;;
611;SDS011;293;53.888;11.464;2023-11-19T00:42:12;12.27;;;9.60;;
611;SDS011;293;53.888;11.464;2023-11-19T00:44:39;11.50;;;8.60;;
611;SDS011;293;53.888;11.464;2023-11-19T00:47:07;14.32;;;9.20;;
611;SDS011;293;53.888;11.464;2023-11-19T00:49:34;9.15;;;7.57;;
611;SDS011;293;53.888;11.464;2023-11-19T00:52:01;10.18;;;8.73;;
611;SDS011;293;53.888;11.464;2023-11-19T00:54:29;10.32;;;9.23;;
611;SDS011;293;53.888;11.464;2023-11-19T00:56:56;9.68;;;8.05;;
611;SDS011;293;53.888;11.464;2023-11-19T00:59:23;9.48;;;8.20;;
611;SDS011;293;53.888;11.464;2023-11-19T01:01:50;8.43;;;7.60;;
611;SDS011;293;53.888;11.464;2023-11-19T01:04:17;11.13;;;8.23;;
611;SDS011;293;53.888;11.464;2023-11-19T01:06:44;12.95;;;8.13;;
611;SDS011;293;53.888;11.464;2023-11-19T01:09:10;9.63;;;8.63;;
611;SDS011;293;53.888;11.464;2023-11-19T01:11:39;12.75;;;8.73;;
611;SDS011;293;53.888;11.464;2023-11-19T01:14:06;12.60;;;9.10;;
611;SDS011;293;53.888;11.464;2023-11-19T01:16:32;10.07;;;8.82;;
611;SDS011;293;53.888;11.464;2023-11-19T01:18:59;9.43;;;8.43;;
611;SDS011;293;53.888;11.464;2023-11-19T01:21:29;10.82;;;8.77;;
611;SDS011;293;53.888;11.464;2023-11-19T01:23:56;11.68;;;8.80;;
611;SDS011;293;53.888;11.464;2023-11-19T01:26:24;9.65;;;8.45;;
611;SDS011;293;53.888;11.464;2023-11-19T01:28:53;11.47;;;10.27;;
611;SDS011;293;53.888;11.464;2023-11-19T01:31:19;13.20;;;8.23;;
611;SDS011;293;53.888;11.464;2023-11-19T01:33:46;9.45;;;8.55;;
611;SDS011;293;53.888;11.464;2023-11-19T01:36:13;10.03;;;8.87;;
611;SDS011;293;53.888;11.464;2023-11-19T01:38:40;9.67;;;8.67;;
611;SDS011;293;53.888;11.464;2023-11-19T01:41:07;11.02;;;8.20;;
611;SDS011;293;53.888;11.464;2023-11-19T01:43:35;9.63;;;8.07;;
611;SDS011;293;53.888;11.464;2023-11-19T01:46:04;9.97;;;8.97;;
611;SDS011;293;53.888;11.464;2023-11-19T01:48:35;11.15;;;8.95;;
611;SDS011;293;53.888;11.464;2023-11-19T01:51:04;9.73;;;8.73;;
611;SDS011;293;53.888;11.464;2023-11-19T01:53:33;10.10;;;8.80;;
611;SDS011;293;53.888;11.464;2023-11-19T01:56:02;10.48;;;8.40;;
611;SDS011;293;53.888;11.464;2023-11-19T01:58:31;12.00;;;10.18;;
611;SDS011;293;53.888;11.464;2023-11-19T02:00:59;9.85;;;8.25;;
611;SDS011;293;53.888;11.464;2023-11-19T02:03:30;15.00;;;9.60;;
611;SDS011;293;53.888;11.464;2023-11-19T02:05:58;10.37;;;7.67;;
611;SDS011;293;53.888;11.464;2023-11-19T02:08:25;10.18;;;8.23;;
611;SDS011;293;53.888;11.464;2023-11-19T02:10:52;11.07;;;9.90;;
611;SDS011;293;53.888;11.464;2023-11-19T02:13:22;8.10;;;7.35;;
611;SDS011;293;53.888;11.464;2023-11-19T02:15:50;11.40;;;10.18;;
611;SDS011;293;53.888;11.464;2023-11-19T02:18:17;9.75;;;7.45;;
611;SDS011;293;53.888;11.464;2023-11-19T02:20:46;12.30;;;8.15;;
611;SDS011;293;53.888;11.464;2023-11-19T02:23:13;10.93;;;8.38;;
611;SDS011;293;53.888;11.464;2023-11-19T02:25:40;9.85;;;8.85;;
611;SDS011;293;53.888;11.464;2023-11-19T02:28:09;13.25;;;9.18;;
611;SDS011;293;53.888;11.464;2023-11-19T02:30:37;8.20;;;7.43;;
611;SDS011;293;53.888;11.464;2023-11-19T02:33:04;10.60;;;8.73;;
611;SDS011;293;53.888;11.464;2023-11-19T02:35:32;9.02;;;8.23;;
611;SDS011;293;53.888;11.464;2023-11-19T02:37:59;9.52;;;8.55;;
611;SDS011;293;53.888;11.464;2023-11-19T02:40:28;9.57;;;8.57;;
611;SDS011;293;53.888;11.464;2023-11-19T02:42:56;7.43;;;6.68;;
611;SDS011;293;53.888;11.464;2023-11-19T02:45:24;8.53;;;7.70;;
611;SDS011;293;53.888;11.464;2023-11-19T02:47:52;9.80;;;8.80;;
611;SDS011;293;53.888;11.464;2023-11-19T02:50:20;9.73;;;8.73;;
611;SDS011;293;53.888;11.464;2023-11-19T02:52:50;8.20;;;7.20;;
611;SDS011;293;53.888;11.464;2023-11-19T02:55:19;9.60;;;8.70;;
611;SDS011;293;53.888;11.464;2023-11-19T02:57:46;11.00;;;8.90;;
611;SDS011;293;53.888;11.464;2023-11-19T03:00:14;11.10;;;8.75;;
611;SDS011;293;53.888;11.464;2023-11-19T03:02:43;9.13;;;8.23;;
611;SDS011;293;53.888;11.464;2023-11-19T03:05:11;7.90;;;7.10;;
611;SDS011;293;53.888;11.464;2023-11-19T03:07:40;9.75;;;8.80;;
611;SDS011;293;53.888;11.464;2023-11-19T03:10:08;9.57;;;8.60;;
611;SDS011;293;53.888;11.464;2023-11-19T03:12:38;9.43;;;7.97;;
611;SDS011;293;53.888;11.464;2023-11-19T03:15:06;8.45;;;7.55;;
611;SDS011;293;53.888;11.464;2023-11-19T03:17:35;7.35;;;6.22;;
611;SDS011;293;53.888;11.464;2023-11-19T03:20:04;8.13;;;7.20;;
611;SDS011;293;53.888;11.464;2023-11-19T03:22:34;10.15;;;7.72;;
611;SDS011;293;53.888;11.464;2023-11-19T03:25:03;7.60;;;6.90;;
611;SDS011;293;53.888;11.464;2023-11-19T03:27:33;7.90;;;7.20;;
611;SDS011;293;53.888;11.464;2023-11-19T03:30:00;8.55;;;6.63;;
611;SDS011;293;53.888;11.464;2023-11-19T03:32:29;7.10;;;6.00;;
611;SDS011;293;53.888;11.464;2023-11-19T03:34:56;6.30;;;5.70;;
611;SDS011;293;53.888;11.464;2023-11-19T03:37:25;7.07;;;5.78;;
611;SDS011;293;53.888;11.464;2023-11-19T03:39:53;6.10;;;5.33;;
611;SDS011;293;53.888;11.464;2023-11-19T03:42:20;6.33;;;5.73;;
611;SDS011;293;53.888;11.464;2023-11-19T03:44:47;5.70;;;4.83;;
611;SDS011;293;53.888;11.464;2023-11-19T03:47:15;5.37;;;4.93;;
611;SDS011;293;53.888;11.464;2023-11-19T03:49:42;5.57;;;5.00;;
611;SDS011;293;53.888;11.464;2023-11-19T03:52:13;5.57;;;4.60;;
611;SDS011;293;53.888;11.464;2023-11-19T03:54:42;5.78;;;5.28;;
611;SDS011;293;53.888;11.464;2023-11-19T03:57:09;5.38;;;4.93;;
611;SDS011;293;53.888;11.464;2023-11-19T03:59:37;4.87;;;4.37;;
611;SDS011;293;53.888;11.464;2023-11-19T04:02:04;5.60;;;3.27;;
611;SDS011;293;53.888;11.464;2023-11-19T04:04:31;4.85;;;4.38;;
611;SDS011;293;53.888;11.464;2023-11-19T04:06:58;5.40;;;4.60;;
611;SDS011;293;53.888;11.464;2023-11-19T04:09:27;4.00;;;3.60;;
611;SDS011;293;53.888;11.464;2023-11-19T04:11:56;5.20;;;4.70;;
611;SDS011;293;53.888;11.464;2023-11-19T04:14:23;5.22;;;4.72;;
611;SDS011;293;53.888;11.464;2023-11-19T04:16:50;9.50;;;3.87;;
611;SDS011;293;53.888;11.464;2023-11-19T04:19:17;4.90;;;4.40;;
611;SDS011;293;53.888;11.464;2023-11-19T04:21:44;4.60;;;3.87;;
611;SDS011;293;53.888;11.464;2023-11-19T04:24:11;3.70;;;3.40;;
611;SDS011;293;53.888;11.464;2023-11-19T04:26:40;4.13;;;3.20;;
611;SDS011;293;53.888;11.464;2023-11-19T04:29:09;3.83;;;3.53;;
611;SDS011;293;53.888;11.464;2023-11-19T04:31:37;3.20;;;2.90;;
611;SDS011;293;53.888;11.464;2023-11-19T04:34:04;4.47;;;3.63;;
611;SDS011;293;53.888;11.464;2023-11-19T04:36:31;3.20;;;2.90;;
611;SDS011;293;53.888;11.464;2023-11-19T04:38:58;2.63;;;2.40;;
611;SDS011;293;53.888;11.464;2023-11-19T04:41:25;2.95;;;2.63;;
611;SDS011;293;53.888;11.464;2023-11-19T04:43:53;2.78;;;2.58;;
611;SDS011;293;53.888;11.464;2023-11-19T04:46:22;3.03;;;2.80;;
611;SDS011;293;53.888;11.464;2023-11-19T04:48:49;3.03;;;2.70;;
611;SDS011;293;53.888;11.464;2023-11-19T04:51:16;2.40;;;2.20;;
611;SDS011;293;53.888;11.464;2023-11-19T04:53:43;2.65;;;2.45;;
611;SDS011;293;53.888;11.464;2023-11-19T04:56:10;2.42;;;2.22;;
611;SDS011;293;53.888;11.464;2023-11-19T04:58:38;2.77;;;2.57;;
611;SDS011;293;53.888;11.464;2023-11-19T05:01:05;2.37;;;2.27;;
611;SDS011;293;53.888;11.464;2023-11-19T05:03:34;2.17;;;1.97;;
611;SDS011;293;53.888;11.464;2023-11-19T05:06:01;2.25;;;2.05;;
611;SDS011;293;53.888;11.464;2023-11-19T05:08:28;2.30;;;2.10;;
611;SDS011;293;53.888;11.464;2023-11-19T05:10:55;2.80;;;2.60;;
611;SDS011;293;53.888;11.464;2023-11-19T05:13:22;1.83;;;1.73;;
611;SDS011;293;53.888;11.464;2023-11-19T05:15:49;2.20;;;2.00;;
611;SDS011;293;53.888;11.464;2023-11-19T05:18:16;2.70;;;2.50;;
611;SDS011;293;53.888;11.464;2023-11-19T05:20:45;4.30;;;2.60;;
611;SDS011;293;53.888;11.464;2023-11-19T05:23:12;2.33;;;2.13;;
611;SDS011;293;53.888;11.464;2023-11-19T05:25:38;2.42;;;2.10;;
611;SDS011;293;53.888;11.464;2023-11-19T05:28:05;2.30;;;2.10;;
611;SDS011;293;53.888;11.464;2023-11-19T05:30:33;2.97;;;1.80;;
611;SDS011;293;53.888;11.464;2023-11-19T05:33:00;1.93;;;1.80;;
611;SDS011;293;53.888;11.464;2023-11-19T05:35:27;2.47;;;2.28;;
611;SDS011;293;53.888;11.464;2023-11-19T05:37:55;2.50;;;1.90;;
611;SDS011;293;53.888;11.464;2023-11-19T05:40:22;1.80;;;1.43;;
611;SDS011;293;53.888;11.464;2023-11-19T05:42:48;2.70;;;1.97;;
611;SDS011;293;53.888;11.464;2023-11-19T05:45:15;1.90;;;1.80;;
611;SDS011;293;53.888;11.464;2023-11-19T05:47:42;2.20;;;2.00;;
611;SDS011;293;53.888;11.464;2023-11-19T05:50:10;1.50;;;1.40;;
611;SDS011;293;53.888;11.464;2023-11-19T05:52:37;1.80;;;1.67;;
611;SDS011;293;53.888;11.464;2023-11-19T05:55:05;2.30;;;2.10;;
611;SDS011;293;53.888;11.464;2023-11-19T05:57:35;1.73;;;1.63;;
611;SDS011;293;53.888;11.464;2023-11-19T06:00:02;2.30;;;2.20;;
611;SDS011;293;53.888;11.464;2023-11-19T06:02:32;1.47;;;1.37;;
611;SDS011;293;53.888;11.464;2023-11-19T06:04:59;1.70;;;1.60;;
611;SDS011;293;53.888;11.464;2023-11-19T06:07:26;1.70;;;1.60;;
611;SDS011;293;53.888;11.464;2023-11-19T06:09:53;1.80;;;1.70;;
611;SDS011;293;53.888;11.464;2023-11-19T06:12:21;1.77;;;1.67;;
611;SDS011;293;53.888;11.464;2023-11-19T06:14:48;2.57;;;2.37;;
611;SDS011;293;53.888;11.464;2023-11-19T06:17:15;2.95;;;1.95;;
611;SDS011;293;53.888;11.464;2023-11-19T06:19:42;2.73;;;1.87;;
611;SDS011;293;53.888;11.464;2023-11-19T06:22:10;1.97;;;1.73;;
611;SDS011;293;53.888;11.464;2023-11-19T06:24:37;5.43;;;1.85;;
611;SDS011;293;53.888;11.464;2023-11-19T06:27:03;1.80;;;1.27;;
611;SDS011;293;53.888;11.464;2023-11-19T06:29:32;1.60;;;1.50;;
611;SDS011;293;53.888;11.464;2023-11-19T06:31:58;1.33;;;1.23;;
611;SDS011;293;53.888;11.464;2023-11-19T06:34:25;1.70;;;1.60;;
611;SDS011;293;53.888;11.464;2023-11-19T06:36:52;1.27;;;1.17;;
611;SDS011;293;53.888;11.464;2023-11-19T06:39:19;1.13;;;1.03;;
611;SDS011;293;53.888;11.464;2023-11-19T06:41:46;0.90;;;0.90;;
611;SDS011;293;53.888;11.464;2023-11-19T06:44:13;1.20;;;1.10;;
611;SDS011;293;53.888;11.464;2023-11-19T06:46:42;1.53;;;1.23;;
611;SDS011;293;53.888;11.464;2023-11-19T06:49:08;1.30;;;1.13;;
611;SDS011;293;53.888;11.464;2023-11-19T06:51:35;0.97;;;0.83;;
611;SDS011;293;53.888;11.464;2023-11-19T06:54:06;1.17;;;1.07;;
611;SDS011;293;53.888;11.464;2023-11-19T06:56:33;2.03;;;1.50;;
611;SDS011;293;53.888;11.464;2023-11-19T06:59:00;1.30;;;1.17;;
611;SDS011;293;53.888;11.464;2023-11-19T07:01:27;1.50;;;1.40;;
611;SDS011;293;53.888;11.464;2023-11-19T07:03:55;1.53;;;1.43;;
611;SDS011;293;53.888;11.464;2023-11-19T07:06:23;1.20;;;1.10;;
611;SDS011;293;53.888;11.464;2023-11-19T07:08:49;1.60;;;1.50;;
611;SDS011;293;53.888;11.464;2023-11-19T07:11:16;2.57;;;1.90;;
611;SDS011;293;53.888;11.464;2023-11-19T07:13:43;2.30;;;1.77;;
611;SDS011;293;53.888;11.464;2023-11-19T07:16:11;4.80;;;2.43;;
611;SDS011;293;53.888;11.464;2023-11-19T07:18:40;3.47;;;3.17;;
611;SDS011;293;53.888;11.464;2023-11-19T07:21:10;3.63;;;2.60;;
611;SDS011;293;53.888;11.464;2023-11-19T07:23:37;7.30;;;3.30;;
611;SDS011;293;53.888;11.464;2023-11-19T07:26:04;4.23;;;3.83;;
611;SDS011;293;53.888;11.464;2023-11-19T07:28:34;6.90;;;4.03;;
611;SDS011;293;53.888;11.464;2023-11-19T07:31:01;4.47;;;4.07;;
611;SDS011;293;53.888;11.464;2023-11-19T07:33:27;4.33;;;4.00;;
611;SDS011;293;53.888;11.464;2023-11-19T07:35:55;4.80;;;3.97;;
611;SDS011;293;53.888;11.464;2023-11-19T07:38:23;5.20;;;3.60;;
611;SDS011;293;53.888;11.464;2023-11-19T07:40:50;5.70;;;5.10;;
611;SDS011;293;53.888;11.464;2023-11-19T07:43:17;5.10;;;4.60;;
611;SDS011;293;53.888;11.464;2023-11-19T07:45:44;5.33;;;4.47;;
611;SDS011;293;53.888;11.464;2023-11-19T07:48:11;7.90;;;5.93;;
611;SDS011;293;53.888;11.464;2023-11-19T07:50:38;9.90;;;8.30;;
611;SDS011;293;53.888;11.464;2023-11-19T07:53:06;9.03;;;7.10;;
611;SDS011;293;53.888;11.464;2023-11-19T07:55:35;13.67;;;9.17;;
611;SDS011;293;53.888;11.464;2023-11-19T07:58:02;12.03;;;8.43;;
611;SDS011;293;53.888;11.464;2023-11-19T08:00:28;9.47;;;8.17;;
611;SDS011;293;53.888;11.464;2023-11-19T08:02:55;12.63;;;8.20;;
611;SDS011;293;53.888;11.464;2023-11-19T08:05:22;12.10;;;7.77;;
611;SDS011;293;53.888;11.464;2023-11-19T08:07:49;10.37;;;9.17;;
611;SDS011;293;53.888;11.464;2023-11-19T08:10:18;15.20;;;9.10;;
611;SDS011;293;53.888;11.464;2023-11-19T08:12:46;11.60;;;7.33;;
611;SDS011;293;53.888;11.464;2023-11-19T08:15:13;9.43;;;8.53;;
611;SDS011;293;53.888;11.464;2023-11-19T08:17:40;9.93;;;8.07;;
611;SDS011;293;53.888;11.464;2023-11-19T08:20:08;10.60;;;8.70;;
611;SDS011;293;53.888;11.464;2023-11-19T08:22:35;17.57;;;9.30;;
611;SDS011;293;53.888;11.464;2023-11-19T08:25:03;13.00;;;8.90;;
611;SDS011;293;53.888;11.464;2023-11-19T08:27:30;9.67;;;8.77;;
611;SDS011;293;53.888;11.464;2023-11-19T08:29:59;10.87;;;9.47;;
611;SDS011;293;53.888;11.464;2023-11-19T08:32:26;9.17;;;8.23;;
611;SDS011;293;53.888;11.464;2023-11-19T08:34:53;12.83;;;10.87;;
611;SDS011;293;53.888;11.464;2023-11-19T08:37:21;11.83;;;10.23;;
611;SDS011;293;53.888;11.464;2023-11-19T08:39:48;11.63;;;8.87;;
611;SDS011;293;53.888;11.464;2023-11-19T08:42:16;11.90;;;9.87;;
611;SDS011;293;53.888;11.464;2023-11-19T08:44:44;12.00;;;9.70;;
611;SDS011;293;53.888;11.464;2023-11-19T08:47:20;10.83;;;8.63;;
611;SDS011;293;53.888;11.464;2023-11-19T08:49:48;11.20;;;8.77;;
611;SDS011;293;53.888;11.464;2023-11-19T08:52:16;16.57;;;12.10;;
611;SDS011;293;53.888;11.464;2023-11-19T08:54:43;13.90;;;9.93;;
611;SDS011;293;53.888;11.464;2023-11-19T08:57:10;16.67;;;8.77;;
611;SDS011;293;53.888;11.464;2023-11-19T08:59:37;10.57;;;8.70;;
611;SDS011;293;53.888;11.464;2023-11-19T09:02:04;11.00;;;9.37;;
611;SDS011;293;53.888;11.464;2023-11-19T09:04:33;9.60;;;8.57;;
611;SDS011;293;53.888;11.464;2023-11-19T09:07:01;8.97;;;8.07;;
611;SDS011;293;53.888;11.464;2023-11-19T09:09:28;15.03;;;8.07;;
611;SDS011;293;53.888;11.464;2023-11-19T09:11:55;8.83;;;8.03;;
611;SDS011;293;53.888;11.464;2023-11-19T09:14:22;9.53;;;8.10;;
611;SDS011;293;53.888;11.464;2023-11-19T09:16:51;13.10;;;9.33;;
611;SDS011;293;53.888;11.464;2023-11-19T09:19:17;10.70;;;8.40;;
611;SDS011;293;53.888;11.464;2023-11-19T09:21:46;12.23;;;8.30;;
611;SDS011;293;53.888;11.464;2023-11-19T09:24:14;16.23;;;9.80;;
611;SDS011;293;53.888;11.464;2023-11-19T09:26:41;9.47;;;8.47;;
611;SDS011;293;53.888;11.464;2023-11-19T09:29:08;10.27;;;8.47;;
611;SDS011;293;53.888;11.464;2023-11-19T09:31:34;10.60;;;9.10;;
611;SDS011;293;53.888;11.464;2023-11-19T09:34:03;14.07;;;10.10;;
611;SDS011;293;53.888;11.464;2023-11-19T09:36:30;15.77;;;10.73;;
611;SDS011;293;53.888;11.464;2023-11-19T09:38:58;16.07;;;8.87;;
611;SDS011;293;53.888;11.464;2023-11-19T09:41:27;16.57;;;9.70;;
611;SDS011;293;53.888;11.464;2023-11-19T09:43:55;12.30;;;8.57;;
611;SDS011;293;53.888;11.464;2023-11-19T09:46:22;15.03;;;9.73;;
611;SDS011;293;53.888;11.464;2023-11-19T09:48:50;13.00;;;9.53;;
611;SDS011;293;53.888;11.464;2023-11-19T09:51:20;12.37;;;7.37;;
611;SDS011;293;53.888;11.464;2023-11-19T09:53:47;17.67;;;8.03;;
611;SDS011;293;53.888;11.464;2023-11-19T09:56:16;22.97;;;9.47;;
611;SDS011;293;53.888;11.464;2023-11-19T09:58:43;14.67;;;10.73;;
611;SDS011;293;53.888;11.464;2023-11-19T10:01:09;17.80;;;11.03;;
611;SDS011;293;53.888;11.464;2023-11-19T10:03:37;13.73;;;8.00;;
611;SDS011;293;53.888;11.464;2023-11-19T10:06:06;22.03;;;17.10;;
611;SDS011;293;53.888;11.464;2023-11-19T10:08:33;20.17;;;11.03;;
611;SDS011;293;53.888;11.464;2023-11-19T10:11:00;24.87;;;10.03;;
611;SDS011;293;53.888;11.464;2023-11-19T10:13:29;26.00;;;10.70;;
611;SDS011;293;53.888;11.464;2023-11-19T10:15:56;21.83;;;8.40;;
611;SDS011;293;53.888;11.464;2023-11-19T10:18:24;24.10;;;8.67;;
611;SDS011;293;53.888;11.464;2023-11-19T10:20:51;21.27;;;7.83;;
611;SDS011;293;53.888;11.464;2023-11-19T10:23:20;19.00;;;7.60;;
611;SDS011;293;53.888;11.464;2023-11-19T10:25:47;27.20;;;8.73;;
611;SDS011;293;53.888;11.464;2023-11-19T10:28:14;41.10;;;9.50;;
611;SDS011;293;53.888;11.464;2023-11-19T10:30:44;34.33;;;8.97;;
611;SDS011;293;53.888;11.464;2023-11-19T10:33:11;25.30;;;7.20;;
611;SDS011;293;53.888;11.464;2023-11-19T10:35:50;29.63;;;8.43;;
611;SDS011;293;53.888;11.464;2023-11-19T10:38:18;25.73;;;7.47;;
611;SDS011;293;53.888;11.464;2023-11-19T10:40:45;28.60;;;6.97;;
611;SDS011;293;53.888;11.464;2023-11-19T10:43:12;44.97;;;8.03;;
611;SDS011;293;53.888;11.464;2023-11-19T10:45:39;35.03;;;7.47;;
611;SDS011;293;53.888;11.464;2023-11-19T10:48:08;28.80;;;7.07;;
611;SDS011;293;53.888;11.464;2023-11-19T10:50:35;22.17;;;6.07;;
611;SDS011;293;53.888;11.464;2023-11-19T10:53:04;27.83;;;7.07;;
611;SDS011;293;53.888;11.464;2023-11-19T10:55:32;23.50;;;6.50;;
611;SDS011;293;53.888;11.464;2023-11-19T10:58:00;41.93;;;7.93;;
611;SDS011;293;53.888;11.464;2023-11-19T11:00:29;26.00;;;6.40;;
611;SDS011;293;53.888;11.464;2023-11-19T11:02:59;22.67;;;6.70;;
611;SDS011;293;53.888;11.464;2023-11-19T11:05:28;28.27;;;6.37;;
611;SDS011;293;53.888;11.464;2023-11-19T11:07:58;25.80;;;6.80;;
611;SDS011;293;53.888;11.464;2023-11-19T11:10:26;28.57;;;6.43;;
611;SDS011;293;53.888;11.464;2023-11-19T11:12:59;29.30;;;11.00;;
611;SDS011;293;53.888;11.464;2023-11-19T11:15:28;31.50;;;9.47;;
611;SDS011;293;53.888;11.464;2023-11-19T11:17:58;35.70;;;6.90;;
611;SDS011;293;53.888;11.464;2023-11-19T11:20:28;31.33;;;6.20;;
611;SDS011;293;53.888;11.464;2023-11-19T11:23:00;24.90;;;6.50;;
611;SDS011;293;53.888;11.464;2023-11-19T11:25:47;27.17;;;7.70;;
611;SDS011;293;53.888;11.464;2023-11-19T11:28:26;25.33;;;6.33;;
611;SDS011;293;53.888;11.464;2023-11-19T11:31:06;27.10;;;6.33;;
611;SDS011;293;53.888;11.464;2023-11-19T11:36:33;24.80;;;6.57;;
611;SDS011;293;53.888;11.464;2023-11-19T11:39:10;25.60;;;6.50;;
611;SDS011;293;53.888;11.464;2023-11-19T11:41:38;27.67;;;6.07;;
611;SDS011;293;53.888;11.464;2023-11-19T11:44:05;34.17;;;8.20;;
611;SDS011;293;53.888;11.464;2023-11-19T11:49:27;23.43;;;6.93;;
611;SDS011;293;53.888;11.464;2023-11-19T11:52:04;46.83;;;8.83;;
611;SDS011;293;53.888;11.464;2023-11-19T11:54:30;33.47;;;6.27;;
611;SDS011;293;53.888;11.464;2023-11-19T11:57:01;22.43;;;6.80;;
611;SDS011;293;53.888;11.464;2023-11-19T11:59:47;18.00;;;5.63;;
611;SDS011;293;53.888;11.464;2023-11-19T12:02:15;25.90;;;6.33;;
611;SDS011;293;53.888;11.464;2023-11-19T12:04:46;32.37;;;6.17;;
611;SDS011;293;53.888;11.464;2023-11-19T12:07:16;21.93;;;5.20;;
611;SDS011;293;53.888;11.464;2023-11-19T12:09:48;20.73;;;5.67;;
611;SDS011;293;53.888;11.464;2023-11-19T12:12:19;17.40;;;4.90;;
611;SDS011;293;53.888;11.464;2023-11-19T12:15:03;24.50;;;5.17;;
611;SDS011;293;53.888;11.464;2023-11-19T12:17:37;21.23;;;5.30;;
611;SDS011;293;53.888;11.464;2023-11-19T12:20:09;26.57;;;7.03;;
611;SDS011;293;53.888;11.464;2023-11-19T12:22:38;28.67;;;11.00;;
611;SDS011;293;53.888;11.464;2023-11-19T12:25:06;31.07;;;8.43;;
611;SDS011;293;53.888;11.464;2023-11-19T12:27:33;13.67;;;4.97;;
611;SDS011;293;53.888;11.464;2023-11-19T12:30:00;29.93;;;6.23;;
611;SDS011;293;53.888;11.464;2023-11-19T12:32:37;27.80;;;5.77;;
611;SDS011;293;53.888;11.464;2023-11-19T12:35:05;14.47;;;5.20;;
611;SDS011;293;53.888;11.464;2023-11-19T12:37:32;22.77;;;5.70;;
611;SDS011;293;53.888;11.464;2023-11-19T12:40:01;25.07;;;5.53;;
611;SDS011;293;53.888;11.464;2023-11-19T12:42:36;26.53;;;5.80;;
611;SDS011;293;53.888;11.464;2023-11-19T12:45:04;21.13;;;5.30;;
611;SDS011;293;53.888;11.464;2023-11-19T12:47:31;18.60;;;5.17;;
611;SDS011;293;53.888;11.464;2023-11-19T12:49:58;27.07;;;5.77;;
611;SDS011;293;53.888;11.464;2023-11-19T12:52:25;21.87;;;5.73;;
611;SDS011;293;53.888;11.464;2023-11-19T12:54:52;20.90;;;6.47;;
611;SDS011;293;53.888;11.464;2023-11-19T12:57:21;18.43;;;5.40;;
611;SDS011;293;53.888;11.464;2023-11-19T13:00:02;22.27;;;5.27;;
611;SDS011;293;53.888;11.464;2023-11-19T13:02:44;14.20;;;4.93;;
611;SDS011;293;53.888;11.464;2023-11-19T13:05:27;11.37;;;3.90;;
611;SDS011;293;53.888;11.464;2023-11-19T13:08:02;19.97;;;4.20;;
611;SDS011;293;53.888;11.464;2023-11-19T13:10:31;17.77;;;5.17;;
611;SDS011;293;53.888;11.464;2023-11-19T13:13:06;20.67;;;4.90;;
611;SDS011;293;53.888;11.464;2023-11-19T13:15:34;15.60;;;4.30;;
611;SDS011;293;53.888;11.464;2023-11-19T13:18:02;18.33;;;7.00;;
611;SDS011;293;53.888;11.464;2023-11-19T13:20:29;20.20;;;5.13;;
611;SDS011;293;53.888;11.464;2023-11-19T13:22:57;25.40;;;5.20;;
611;SDS011;293;53.888;11.464;2023-11-19T13:25:24;26.07;;;5.63;;
611;SDS011;293;53.888;11.464;2023-11-19T13:27:51;21.13;;;6.20;;
611;SDS011;293;53.888;11.464;2023-11-19T13:30:20;27.17;;;6.07;;
611;SDS011;293;53.888;11.464;2023-11-19T13:32:48;20.60;;;5.50;;
611;SDS011;293;53.888;11.464;2023-11-19T13:35:15;27.13;;;12.20;;
611;SDS011;293;53.888;11.464;2023-11-19T13:37:43;22.90;;;5.13;;
611;SDS011;293;53.888;11.464;2023-11-19T13:40:10;22.33;;;5.20;;
611;SDS011;293;53.888;11.464;2023-11-19T13:42:39;28.73;;;5.50;;
611;SDS011;293;53.888;11.464;2023-11-19T13:45:07;20.70;;;3.93;;
611;SDS011;293;53.888;11.464;2023-11-19T13:47:38;20.83;;;6.00;;
611;SDS011;293;53.888;11.464;2023-11-19T13:50:07;23.00;;;5.27;;
611;SDS011;293;53.888;11.464;2023-11-19T13:52:35;27.90;;;7.80;;
611;SDS011;293;53.888;11.464;2023-11-19T13:55:04;18.53;;;4.90;;
611;SDS011;293;53.888;11.464;2023-11-19T13:57:33;14.97;;;4.17;;
611;SDS011;293;53.888;11.464;2023-11-19T14:00:00;20.60;;;4.73;;
611;SDS011;293;53.888;11.464;2023-11-19T14:02:28;24.10;;;5.60;;
611;SDS011;293;53.888;11.464;2023-11-19T14:04:56;21.13;;;5.23;;
611;SDS011;293;53.888;11.464;2023-11-19T14:07:23;25.27;;;5.60;;
611;SDS011;293;53.888;11.464;2023-11-19T14:09:50;24.47;;;5.37;;
611;SDS011;293;53.888;11.464;2023-11-19T14:12:17;19.63;;;5.97;;
611;SDS011;293;53.888;11.464;2023-11-19T14:14:43;29.70;;;6.17;;
611;SDS011;293;53.888;11.464;2023-11-19T14:17:10;25.80;;;5.70;;
611;SDS011;293;53.888;11.464;2023-11-19T14:19:37;24.97;;;5.97;;
611;SDS011;293;53.888;11.464;2023-11-19T14:22:06;25.53;;;6.40;;
611;SDS011;293;53.888;11.464;2023-11-19T14:24:33;24.13;;;5.70;;
611;SDS011;293;53.888;11.464;2023-11-19T14:27:00;30.37;;;6.10;;
611;SDS011;293;53.888;11.464;2023-11-19T14:29:27;26.60;;;6.03;;
611;SDS011;293;53.888;11.464;2023-11-19T14:31:54;19.63;;;5.50;;
611;SDS011;293;53.888;11.464;2023-11-19T14:34:21;22.70;;;6.23;;
611;SDS011;293;53.888;11.464;2023-11-19T14:36:49;30.00;;;6.50;;
611;SDS011;293;53.888;11.464;2023-11-19T14:39:18;20.83;;;5.53;;
611;SDS011;293;53.888;11.464;2023-11-19T14:41:44;32.27;;;7.10;;
611;SDS011;293;53.888;11.464;2023-11-19T14:44:11;16.17;;;4.90;;
611;SDS011;293;53.888;11.464;2023-11-19T14:46:38;19.53;;;5.27;;
611;SDS011;293;53.888;11.464;2023-11-19T14:49:05;23.30;;;6.57;;
611;SDS011;293;53.888;11.464;2023-11-19T14:51:35;30.77;;;8.20;;
611;SDS011;293;53.888;11.464;2023-11-19T14:54:02;24.27;;;7.20;;
611;SDS011;293;53.888;11.464;2023-11-19T14:56:30;28.07;;;6.93;;
611;SDS011;293;53.888;11.464;2023-11-19T14:58:57;16.37;;;5.83;;
611;SDS011;293;53.888;11.464;2023-11-19T15:01:24;24.53;;;6.50;;
611;SDS011;293;53.888;11.464;2023-11-19T15:03:53;20.60;;;6.40;;
611;SDS011;293;53.888;11.464;2023-11-19T15:06:22;27.87;;;6.30;;
611;SDS011;293;53.888;11.464;2023-11-19T15:08:50;23.43;;;5.80;;
611;SDS011;293;53.888;11.464;2023-11-19T15:11:17;22.57;;;6.00;;
611;SDS011;293;53.888;11.464;2023-11-19T15:13:45;24.20;;;7.20;;
611;SDS011;293;53.888;11.464;2023-11-19T15:16:12;25.07;;;6.27;;
611;SDS011;293;53.888;11.464;2023-11-19T15:18:39;27.97;;;7.63;;
611;SDS011;293;53.888;11.464;2023-11-19T15:21:06;34.53;;;6.80;;
611;SDS011;293;53.888;11.464;2023-11-19T15:23:34;26.40;;;6.00;;
611;SDS011;293;53.888;11.464;2023-11-19T15:26:02;30.00;;;8.20;;
611;SDS011;293;53.888;11.464;2023-11-19T15:28:29;36.87;;;6.20;;
611;SDS011;293;53.888;11.464;2023-11-19T15:30:57;29.30;;;7.40;;